createdAt,value
2018-11-06T00:02:22.347Z,22.43
2018-11-06T00:04:55.963Z,22.57
2018-11-06T00:07:24.141Z,21.20
2018-11-06T00:09:52.297Z,23.23
2018-11-06T00:12:20.481Z,21.23
2018-11-06T00:14:48.641Z,21.50
2018-11-06T00:17:16.807Z,21.87
2018-11-06T00:19:44.982Z,21.50
2018-11-06T00:22:13.164Z,21.83
2018-11-06T00:24:41.318Z,22.80
2018-11-06T00:27:09.492Z,23.20
2018-11-06T00:29:37.686Z,22.47
2018-11-06T00:32:05.882Z,22.77
2018-11-06T00:34:34.047Z,20.33
2018-11-06T00:37:02.211Z,19.47
2018-11-06T00:39:30.390Z,20.60
2018-11-06T00:41:58.557Z,19.70
2018-11-06T00:44:26.772Z,18.83
2018-11-06T00:46:54.977Z,20.30
2018-11-06T00:49:23.127Z,22.73
2018-11-06T00:51:51.294Z,20.13
2018-11-06T00:54:19.458Z,20.53
2018-11-06T00:56:47.609Z,20.40
2018-11-06T00:59:15.773Z,20.30
2018-11-06T01:01:43.939Z,19.03
2018-11-06T01:04:13.942Z,19.80
2018-11-06T01:06:42.217Z,19.13
2018-11-06T01:09:11.958Z,20.47
2018-11-06T01:11:40.734Z,18.60
2018-11-06T01:14:09.242Z,20.07
2018-11-06T01:16:37.484Z,19.10
2018-11-06T01:19:05.947Z,19.23
2018-11-06T01:21:34.148Z,21.03
2018-11-06T01:24:02.513Z,19.60
2018-11-06T01:26:30.942Z,20.40
2018-11-06T01:28:59.114Z,19.87
2018-11-06T01:31:27.305Z,19.60
2018-11-06T01:33:55.482Z,20.80
2018-11-06T01:36:23.670Z,18.33
2018-11-06T01:38:51.894Z,21.00
2018-11-06T01:41:20.073Z,20.43
2018-11-06T01:43:48.365Z,20.73
2018-11-06T01:46:16.554Z,21.07
2018-11-06T01:48:44.799Z,20.80
2018-11-06T01:51:12.957Z,20.40
2018-11-06T01:53:41.181Z,20.53
2018-11-06T01:56:09.353Z,21.60
2018-11-06T01:58:37.517Z,20.30
2018-11-06T02:01:05.806Z,21.47
2018-11-06T02:03:33.980Z,21.93
2018-11-06T02:06:02.175Z,22.13
2018-11-06T02:08:30.333Z,20.40
2018-11-06T02:10:58.506Z,21.67
2018-11-06T02:13:26.674Z,20.60
2018-11-06T02:15:54.845Z,20.70
2018-11-06T02:18:23.023Z,20.70
2018-11-06T02:20:51.201Z,21.40
2018-11-06T02:23:19.370Z,21.40
2018-11-06T02:25:47.550Z,21.03
2018-11-06T02:28:15.714Z,20.43
2018-11-06T02:30:43.871Z,21.90
2018-11-06T02:33:12.041Z,20.00
2018-11-06T02:35:40.200Z,23.90
2018-11-06T02:38:08.419Z,21.03
2018-11-06T02:40:36.583Z,22.80
2018-11-06T02:43:05.081Z,21.87
2018-11-06T02:45:33.234Z,21.67
2018-11-06T02:48:01.439Z,22.07
2018-11-06T02:50:29.591Z,22.80
2018-11-06T02:52:57.776Z,22.03
2018-11-06T02:55:25.917Z,22.10
2018-11-06T02:57:54.066Z,24.13
2018-11-06T03:00:22.238Z,25.37
2018-11-06T03:02:50.384Z,23.80
2018-11-06T03:05:18.558Z,23.37
2018-11-06T03:07:46.736Z,24.50
2018-11-06T03:10:15.410Z,24.37
2018-11-06T03:12:44.123Z,25.50
2018-11-06T03:15:13.334Z,25.87
2018-11-06T03:17:41.523Z,25.23
2018-11-06T03:20:11.465Z,25.40
2018-11-06T03:22:41.059Z,25.00
2018-11-06T03:25:12.517Z,24.97
2018-11-06T03:27:40.712Z,26.27
2018-11-06T03:30:11.186Z,25.40
2018-11-06T03:32:39.466Z,25.90
2018-11-06T03:35:08.344Z,26.93
2018-11-06T03:37:36.545Z,25.03
2018-11-06T03:40:05.260Z,25.97
2018-11-06T03:42:33.380Z,27.13
2018-11-06T03:45:01.537Z,26.53
2018-11-06T03:47:29.795Z,27.53
2018-11-06T03:49:57.954Z,28.60
2018-11-06T03:52:26.082Z,28.37
2018-11-06T03:54:54.231Z,27.27
2018-11-06T03:57:22.362Z,27.60
2018-11-06T03:59:50.514Z,26.23
2018-11-06T04:02:18.639Z,28.60
2018-11-06T04:04:46.786Z,27.97
2018-11-06T04:07:15.035Z,27.27
2018-11-06T04:09:43.186Z,29.30
2018-11-06T04:12:11.331Z,29.47
2018-11-06T04:14:39.469Z,30.30
2018-11-06T04:17:07.597Z,29.30
2018-11-06T04:19:35.734Z,29.60
2018-11-06T04:22:03.879Z,27.10
2018-11-06T04:24:32.016Z,29.50
2018-11-06T04:27:00.153Z,30.90
2018-11-06T04:29:28.297Z,34.13
2018-11-06T04:31:56.442Z,32.77
2018-11-06T04:34:24.598Z,33.70
2018-11-06T04:36:52.729Z,31.70
2018-11-06T04:39:20.902Z,32.33
2018-11-06T04:41:49.055Z,31.10
2018-11-06T04:44:17.218Z,30.17
2018-11-06T04:46:45.366Z,33.50
2018-11-06T04:49:13.518Z,34.73
2018-11-06T04:51:41.666Z,34.87
2018-11-06T04:54:09.818Z,35.17
2018-11-06T04:56:37.970Z,31.90
2018-11-06T04:59:06.117Z,33.60
2018-11-06T05:01:34.278Z,31.77
2018-11-06T05:04:02.450Z,30.17
2018-11-06T05:06:30.594Z,30.57
2018-11-06T05:08:58.734Z,33.33
2018-11-06T05:11:26.885Z,30.43
2018-11-06T05:13:55.086Z,30.50
2018-11-06T05:16:23.965Z,26.97
2018-11-06T05:18:52.097Z,35.20
2018-11-06T05:21:20.245Z,35.50
2018-11-06T05:23:48.379Z,36.87
2018-11-06T05:26:16.538Z,37.43
2018-11-06T05:28:44.683Z,33.63
2018-11-06T05:31:12.856Z,35.33
2018-11-06T05:33:41.000Z,37.33
2018-11-06T06:08:20.039Z,34.33
2018-11-06T06:10:48.298Z,24.00
2018-11-06T06:13:16.545Z,25.00
2018-11-06T06:15:45.118Z,35.37
2018-11-06T06:18:13.350Z,39.83
2018-11-06T06:20:41.552Z,26.63
2018-11-06T06:23:09.703Z,29.00
2018-11-06T06:25:37.905Z,31.40
2018-11-06T06:28:06.125Z,27.33
2018-11-06T06:30:34.327Z,28.67
2018-11-06T06:33:02.670Z,31.50
2018-11-06T06:35:34.461Z,28.10
2018-11-06T06:38:02.769Z,29.03
2018-11-06T06:40:31.110Z,26.20
2018-11-06T06:42:59.562Z,28.37
2018-11-06T06:45:27.877Z,36.60
2018-11-06T06:47:56.175Z,26.10
2018-11-06T06:50:24.429Z,19.53
2018-11-06T06:52:52.667Z,19.97
2018-11-06T06:55:20.878Z,21.00
2018-11-06T06:57:49.265Z,22.47
2018-11-06T07:00:18.667Z,18.97
2018-11-06T07:02:46.918Z,23.57
2018-11-06T07:05:16.649Z,22.43
2018-11-06T07:07:45.061Z,25.80
2018-11-06T07:10:15.081Z,34.67
2018-11-06T07:12:44.275Z,32.93
2018-11-06T07:15:13.653Z,19.77
2018-11-06T07:17:42.221Z,22.47
2018-11-06T07:20:12.754Z,31.53
2018-11-06T07:22:41.038Z,24.60
2018-11-06T07:25:10.345Z,24.00
2018-11-06T07:27:39.258Z,26.03
2018-11-06T07:30:10.415Z,25.97
2018-11-06T07:32:39.083Z,25.10
2018-11-06T07:35:08.173Z,21.50
2018-11-06T07:37:36.339Z,19.40
2018-11-06T07:40:05.319Z,18.60
2018-11-06T07:42:33.549Z,20.80
2018-11-06T07:45:01.752Z,21.20
2018-11-06T07:47:30.301Z,22.47
2018-11-06T07:49:58.668Z,21.30
2018-11-06T07:52:26.881Z,20.60
2018-11-06T07:54:55.138Z,19.47
2018-11-06T07:57:23.319Z,19.27
2018-11-06T07:59:51.537Z,19.50
2018-11-06T08:02:19.745Z,18.00
2018-11-06T08:04:47.930Z,21.70
2018-11-06T08:07:16.133Z,19.70
2018-11-06T08:09:44.369Z,17.47
2018-11-06T08:12:12.537Z,18.80
2018-11-06T08:14:40.777Z,18.90
2018-11-06T08:17:08.979Z,18.50
2018-11-06T08:19:37.185Z,16.27
2018-11-06T08:22:05.514Z,16.43
2018-11-06T08:24:33.697Z,15.83
2018-11-06T08:27:01.900Z,16.50
2018-11-06T08:29:30.094Z,14.80
2018-11-06T08:31:58.686Z,14.90
2018-11-06T08:34:26.558Z,14.70
2018-11-06T08:36:54.838Z,13.17
2018-11-06T08:39:22.979Z,14.77
2018-11-06T08:41:51.152Z,14.20
2018-11-06T08:44:20.351Z,13.90
2018-11-06T08:46:48.521Z,13.30
2018-11-06T08:49:16.722Z,13.73
2018-11-06T08:51:44.867Z,13.90
2018-11-06T08:54:13.111Z,14.27
2018-11-06T08:56:41.311Z,13.40
2018-11-06T08:59:09.572Z,13.00
2018-11-06T09:01:37.819Z,13.23
2018-11-06T09:04:06.098Z,11.90
2018-11-06T09:06:34.367Z,12.30
2018-11-06T09:09:07.383Z,11.27
2018-11-06T09:11:35.591Z,11.63
2018-11-06T09:14:03.890Z,10.97
2018-11-06T09:16:32.118Z,10.63
2018-11-06T09:19:00.378Z,11.67
2018-11-06T09:21:28.593Z,10.77
2018-11-06T09:23:56.816Z,11.30
2018-11-06T09:26:25.086Z,10.93
2018-11-06T09:28:53.461Z,10.17
2018-11-06T09:31:21.798Z,10.90
2018-11-06T09:33:50.071Z,10.60
2018-11-06T09:36:18.297Z,11.10
2018-11-06T09:38:46.554Z,10.13
2018-11-06T09:41:14.731Z,9.57
2018-11-06T09:43:42.942Z,10.70
2018-11-06T09:46:11.188Z,10.47
2018-11-06T09:48:39.390Z,10.80
2018-11-06T09:51:07.606Z,10.23
2018-11-06T09:53:35.839Z,10.00
2018-11-06T09:56:04.163Z,10.23
2018-11-06T09:58:32.419Z,10.47
2018-11-06T10:01:00.696Z,10.00
2018-11-06T10:03:28.957Z,9.87
2018-11-06T10:05:57.207Z,9.57
2018-11-06T10:08:25.581Z,9.47
2018-11-06T10:10:53.784Z,8.90
2018-11-06T10:13:22.003Z,9.30
2018-11-06T10:15:50.186Z,9.40
2018-11-06T10:18:18.400Z,9.20
2018-11-06T10:20:46.593Z,9.63
2018-11-06T10:23:14.832Z,9.87
2018-11-06T10:25:43.045Z,9.03
2018-11-06T10:28:11.266Z,8.43
2018-11-06T10:30:39.472Z,8.20
2018-11-06T10:33:07.695Z,9.57
2018-11-06T10:35:35.931Z,8.23
2018-11-06T10:38:04.223Z,9.80
2018-11-06T10:40:32.440Z,10.07
2018-11-06T10:43:00.718Z,9.77
2018-11-06T10:45:29.913Z,8.87
2018-11-06T10:47:58.125Z,9.10
2018-11-06T10:50:26.350Z,8.77
2018-11-06T10:52:54.587Z,8.53
2018-11-06T10:55:22.815Z,8.87
2018-11-06T10:57:51.076Z,8.40
2018-11-06T11:00:24.578Z,8.67
2018-11-06T11:02:58.190Z,9.23
2018-11-06T11:05:27.937Z,8.70
2018-11-06T11:07:56.149Z,8.20
2018-11-06T11:10:24.389Z,8.90
2018-11-06T11:12:52.560Z,8.30
2018-11-06T11:15:20.787Z,8.87
2018-11-06T11:17:49.003Z,8.20
2018-11-06T11:20:17.301Z,8.47
2018-11-06T11:22:45.400Z,9.13
2018-11-06T11:25:14.967Z,8.60
2018-11-06T11:27:43.625Z,8.80
2018-11-06T11:30:12.909Z,8.77
2018-11-06T11:32:42.760Z,9.77
2018-11-06T11:35:11.143Z,8.73
2018-11-06T11:37:39.404Z,8.83
2018-11-06T11:40:10.775Z,9.10
2018-11-06T11:42:38.960Z,8.27
2018-11-06T11:45:08.290Z,8.47
2018-11-06T11:47:36.479Z,7.73
2018-11-06T11:50:05.018Z,7.33
2018-11-06T11:52:33.201Z,7.80
2018-11-06T11:55:01.413Z,7.03
2018-11-06T11:57:29.635Z,6.73
2018-11-06T11:59:57.861Z,7.50
2018-11-06T12:02:26.020Z,7.20
2018-11-06T12:04:54.218Z,7.30
2018-11-06T12:07:22.489Z,7.43
2018-11-06T12:09:50.686Z,7.70
2018-11-06T12:12:18.889Z,7.07
2018-11-06T12:14:47.034Z,7.53
2018-11-06T12:17:15.244Z,7.40
2018-11-06T12:19:43.439Z,7.07
2018-11-06T12:22:11.618Z,7.23
2018-11-06T12:24:39.864Z,7.27
2018-11-06T12:27:08.023Z,7.53
2018-11-06T12:29:36.257Z,7.43
2018-11-06T12:32:04.554Z,6.63
2018-11-06T12:34:32.760Z,6.97
2018-11-06T12:37:00.956Z,7.13
2018-11-06T12:39:29.193Z,7.40
2018-11-06T12:41:57.413Z,8.37
2018-11-06T12:44:25.601Z,7.60
2018-11-06T12:46:53.813Z,8.17
2018-11-06T12:49:21.993Z,7.30
2018-11-06T12:51:50.182Z,8.13
2018-11-06T12:54:18.366Z,7.80
2018-11-06T12:56:46.554Z,21.33
2018-11-06T12:59:14.746Z,13.00
2018-11-06T13:01:42.959Z,9.70
2018-11-06T13:04:11.157Z,9.10
2018-11-06T13:06:39.347Z,7.17
2018-11-06T13:09:09.095Z,6.63
2018-11-06T13:11:37.446Z,6.33
2018-11-06T13:14:05.767Z,5.90
2018-11-06T13:16:33.978Z,7.20
2018-11-06T13:19:02.178Z,7.63
2018-11-06T13:21:30.426Z,7.50
2018-11-06T13:23:58.597Z,7.17
2018-11-06T13:26:26.948Z,8.43
2018-11-06T13:28:55.019Z,7.70
2018-11-06T13:31:26.730Z,7.57
2018-11-06T13:33:54.916Z,7.93
2018-11-06T13:36:23.154Z,9.50
2018-11-06T13:38:51.354Z,7.70
2018-11-06T13:41:19.533Z,6.60
2018-11-06T13:43:47.939Z,6.70
2018-11-06T13:46:15.931Z,6.50
2018-11-06T13:48:44.115Z,9.30
2018-11-06T13:51:12.294Z,6.40
2018-11-06T13:53:40.498Z,5.70
2018-11-06T13:56:08.711Z,5.87
2018-11-06T13:58:36.891Z,6.03
2018-11-06T14:01:05.753Z,5.70
2018-11-06T14:03:34.055Z,5.13
2018-11-06T14:06:02.433Z,5.50
2018-11-06T14:08:32.866Z,6.03
2018-11-06T14:11:01.074Z,5.00
2018-11-06T14:13:29.290Z,4.77
2018-11-06T14:15:57.507Z,5.07
2018-11-06T14:18:25.692Z,6.23
2018-11-06T14:20:53.922Z,5.80
2018-11-06T14:23:22.085Z,6.20
2018-11-06T14:25:50.301Z,5.83
2018-11-06T14:28:18.487Z,6.10
2018-11-06T14:30:46.683Z,7.03
2018-11-06T14:33:14.876Z,7.00
2018-11-06T14:35:43.125Z,6.90
2018-11-06T14:38:11.275Z,6.57
2018-11-06T14:40:39.422Z,6.33
2018-11-06T14:43:07.602Z,7.30
2018-11-06T14:45:35.801Z,5.50
2018-11-06T14:48:04.114Z,7.50
2018-11-06T14:50:32.187Z,6.23
2018-11-06T14:53:00.343Z,7.17
2018-11-06T14:55:28.947Z,7.07
2018-11-06T14:57:57.137Z,7.07
2018-11-06T15:00:25.278Z,6.23
2018-11-06T15:02:56.510Z,7.77
2018-11-06T15:05:24.694Z,5.97
2018-11-06T15:07:52.853Z,6.13
2018-11-06T15:10:21.011Z,6.60
2018-11-06T15:12:49.265Z,7.03
2018-11-06T15:15:17.864Z,7.17
2018-11-06T15:17:46.787Z,7.20
2018-11-06T15:20:17.034Z,7.73
2018-11-06T15:22:45.669Z,7.23
2018-11-06T15:25:14.645Z,8.00
2018-11-06T15:27:42.831Z,8.73
2018-11-06T15:30:12.642Z,6.13
2018-11-06T15:32:41.242Z,7.00
2018-11-06T15:35:11.248Z,6.40
2018-11-06T15:37:39.490Z,8.20
2018-11-06T15:40:09.452Z,8.20
2018-11-06T15:42:37.857Z,5.97
2018-11-06T15:45:07.255Z,6.70
2018-11-06T15:47:35.513Z,6.10
2018-11-06T15:50:04.080Z,6.07
2018-11-06T15:52:32.284Z,6.27
2018-11-06T15:55:00.574Z,6.03
2018-11-06T15:57:28.855Z,5.63
2018-11-06T15:59:57.088Z,6.50
2018-11-06T16:02:25.366Z,6.30
2018-11-06T16:04:53.685Z,6.60
2018-11-06T16:07:23.725Z,7.73
2018-11-06T16:09:51.996Z,6.80
2018-11-06T16:12:20.297Z,7.67
2018-11-06T16:14:48.464Z,8.13
2018-11-06T16:17:16.705Z,8.50
2018-11-06T16:19:44.928Z,6.53
2018-11-06T16:22:13.137Z,6.20
2018-11-06T16:24:41.307Z,5.50
2018-11-06T16:27:09.485Z,6.60
2018-11-06T16:29:37.772Z,6.77
2018-11-06T16:32:05.869Z,6.70
2018-11-06T16:34:34.054Z,6.90
2018-11-06T16:37:02.316Z,6.50
2018-11-06T16:39:30.507Z,6.33
2018-11-06T16:41:58.704Z,7.60
2018-11-06T16:44:26.921Z,9.20
2018-11-06T16:46:55.160Z,8.00
2018-11-06T16:49:23.416Z,7.80
2018-11-06T16:51:51.767Z,7.87
2018-11-06T16:54:20.106Z,8.60
2018-11-06T16:56:48.383Z,8.03
2018-11-06T16:59:16.702Z,8.20
2018-11-06T17:01:44.958Z,8.20
2018-11-06T17:04:13.248Z,7.77
2018-11-06T17:06:48.759Z,7.83
2018-11-06T17:09:17.445Z,7.90
2018-11-06T17:11:45.654Z,7.80
2018-11-06T17:14:14.308Z,5.63
2018-11-06T17:16:42.470Z,6.00
2018-11-06T17:19:10.646Z,8.60
2018-11-06T17:21:38.798Z,7.73
2018-11-06T17:24:07.399Z,7.90
2018-11-06T17:26:35.548Z,6.43
2018-11-06T17:29:04.367Z,7.30
2018-11-06T17:31:32.705Z,6.40
2018-11-06T17:34:00.873Z,6.00
2018-11-06T17:36:29.315Z,5.97
2018-11-06T17:38:57.554Z,6.20
2018-11-06T17:41:25.795Z,7.13
2018-11-06T17:43:53.995Z,6.10
2018-11-06T17:46:22.242Z,9.67
2018-11-06T17:48:50.447Z,8.43
2018-11-06T17:51:18.673Z,6.23
2018-11-06T17:53:46.922Z,6.37
2018-11-06T17:56:15.151Z,5.90
2018-11-06T17:58:43.414Z,6.17
2018-11-06T18:01:11.606Z,5.90
2018-11-06T18:03:39.842Z,6.30
2018-11-06T18:06:08.064Z,7.27
2018-11-06T18:08:36.317Z,6.17
2018-11-06T18:11:04.623Z,5.00
2018-11-06T18:13:32.837Z,4.63
2018-11-06T18:16:02.988Z,5.40
2018-11-06T18:18:35.398Z,4.77
2018-11-06T18:21:04.318Z,4.67
2018-11-06T18:23:44.165Z,4.63
2018-11-06T18:26:13.595Z,4.20
2018-11-06T18:31:36.036Z,3.83
2018-11-06T18:34:06.639Z,4.87
2018-11-06T18:36:35.325Z,4.27
2018-11-06T18:39:06.120Z,5.10
2018-11-06T18:41:34.639Z,5.17
2018-11-06T18:44:06.601Z,5.17
2018-11-06T18:46:34.830Z,4.50
2018-11-06T18:49:03.431Z,5.97
2018-11-06T18:51:31.601Z,6.10
2018-11-06T18:53:59.876Z,6.07
2018-11-06T18:56:28.087Z,6.00
2018-11-06T18:58:56.299Z,6.87
2018-11-06T19:01:24.633Z,7.60
2018-11-06T19:03:52.906Z,7.00
2018-11-06T19:06:21.096Z,7.53
2018-11-06T19:08:49.286Z,6.83
2018-11-06T19:11:17.537Z,8.63
2018-11-06T19:13:45.710Z,9.20
2018-11-06T19:16:13.925Z,9.80
2018-11-06T19:18:42.151Z,8.00
2018-11-06T19:23:09.974Z,9.40
2018-11-06T19:54:22.781Z,7.10
2018-11-06T19:56:51.035Z,6.90
2018-11-06T19:59:19.191Z,6.40
2018-11-06T20:01:47.351Z,7.00
2018-11-06T20:04:15.498Z,6.47
2018-11-06T20:06:43.636Z,6.20
2018-11-06T20:09:12.377Z,7.13
2018-11-06T20:11:40.659Z,6.53
2018-11-06T20:14:09.197Z,5.70
2018-11-06T20:16:37.472Z,6.60
2018-11-06T20:19:06.859Z,6.23
2018-11-06T20:21:35.312Z,6.23
2018-11-06T20:24:03.406Z,6.40
2018-11-06T20:26:31.512Z,6.20
2018-11-06T20:28:59.667Z,6.83
2018-11-06T20:31:27.806Z,6.00
2018-11-06T20:33:56.009Z,6.00
2018-11-06T20:36:24.251Z,5.70
2018-11-06T20:38:52.372Z,6.37
2018-11-06T20:41:20.567Z,6.83
2018-11-06T20:43:48.706Z,6.40
2018-11-06T20:46:16.880Z,5.60
2018-11-06T20:48:45.206Z,6.10
2018-11-06T20:51:13.344Z,6.50
2018-11-06T20:53:41.494Z,7.23
2018-11-06T20:56:09.682Z,5.80
2018-11-06T20:58:37.754Z,7.20
2018-11-06T21:01:06.597Z,6.23
2018-11-06T21:03:34.664Z,6.33
2018-11-06T21:06:02.809Z,5.97
2018-11-06T21:08:30.887Z,7.27
2018-11-06T21:10:59.123Z,7.20
2018-11-06T21:13:27.157Z,7.37
2018-11-06T21:15:55.246Z,7.60
2018-11-06T21:18:23.397Z,6.73
2018-11-06T21:20:51.530Z,7.70
2018-11-06T21:23:19.743Z,7.73
2018-11-06T21:25:48.159Z,7.70
2018-11-06T21:28:15.969Z,7.33
2018-11-06T21:30:44.080Z,7.27
2018-11-06T21:33:12.210Z,6.27
2018-11-06T21:35:40.334Z,6.37
2018-11-06T21:38:08.441Z,6.37
2018-11-06T21:40:36.587Z,5.80
2018-11-06T21:43:04.725Z,6.93
2018-11-06T21:45:32.909Z,6.93
2018-11-06T21:48:00.951Z,6.60
2018-11-06T21:50:29.074Z,7.30
2018-11-06T21:52:57.178Z,6.73
2018-11-06T21:55:25.297Z,7.30
2018-11-06T21:57:53.405Z,7.60
2018-11-06T22:00:21.829Z,7.40
2018-11-06T22:02:49.962Z,7.20
2018-11-06T22:05:19.390Z,7.90
2018-11-06T22:07:47.654Z,7.83
2018-11-06T22:10:17.174Z,7.43
2018-11-06T22:12:45.761Z,7.73
2018-11-06T22:15:15.042Z,8.33
2018-11-06T22:17:43.174Z,7.80
2018-11-06T22:20:15.555Z,8.23
2018-11-06T22:22:44.417Z,8.20
2018-11-06T22:25:12.526Z,8.00
2018-11-06T22:27:40.666Z,8.10
2018-11-06T22:30:10.545Z,9.30
2018-11-06T22:32:38.933Z,7.93
2018-11-06T22:35:08.639Z,8.40
2018-11-06T22:37:36.766Z,8.13
2018-11-06T22:40:07.107Z,8.33
2018-11-06T22:42:35.225Z,8.70
2018-11-06T22:45:03.342Z,8.93
2018-11-06T22:47:31.485Z,8.90
2018-11-06T22:49:59.635Z,8.40
2018-11-06T22:52:27.762Z,9.63
2018-11-06T22:54:55.859Z,8.67
2018-11-06T22:57:23.978Z,9.57
2018-11-06T22:59:52.075Z,8.37
2018-11-06T23:02:20.205Z,8.67
2018-11-06T23:04:48.321Z,10.10
2018-11-06T23:07:21.726Z,9.10
2018-11-06T23:09:49.849Z,8.43
2018-11-06T23:12:17.972Z,9.30
2018-11-06T23:14:46.084Z,9.10
2018-11-06T23:17:14.215Z,9.50
2018-11-06T23:19:42.369Z,9.37
2018-11-06T23:22:10.494Z,9.37
2018-11-06T23:24:38.739Z,9.60
2018-11-06T23:27:06.854Z,10.33
2018-11-06T23:29:34.965Z,10.90
2018-11-06T23:32:03.610Z,10.20
2018-11-06T23:34:31.725Z,10.73
2018-11-06T23:36:59.869Z,10.00
2018-11-06T23:39:27.994Z,10.30
2018-11-06T23:41:56.175Z,9.77
2018-11-06T23:44:24.384Z,9.80
2018-11-06T23:46:52.654Z,9.90
2018-11-06T23:49:20.925Z,10.40
2018-11-06T23:51:49.060Z,10.00
2018-11-06T23:54:17.180Z,10.27
2018-11-06T23:56:45.301Z,11.43
2018-11-06T23:59:13.414Z,10.50
